sensor_id;sensor_type;location;lat;lon;timestamp;temperature;humidity
7204;DHT22;3643;52.460;13.322;2023-01-30T00:01:14;1.70;99.90
7204;DHT22;3643;52.460;13.322;2023-01-30T00:03:44;1.70;99.90
7204;DHT22;3643;52.460;13.322;2023-01-30T00:06:12;1.70;99.90
7204;DHT22;3643;52.460;13.322;2023-01-30T00:08:40;1.70;99.90
7204;DHT22;3643;52.460;13.322;2023-01-30T00:11:10;1.70;99.90
7204;DHT22;3643;52.460;13.322;2023-01-30T00:13:40;1.70;99.90
7204;DHT22;3643;52.460;13.322;2023-01-30T00:16:09;1.80;99.90
7204;DHT22;3643;52.460;13.322;2023-01-30T00:18:38;1.70;99.90
7204;DHT22;3643;52.460;13.322;2023-01-30T00:21:10;1.70;99.90
7204;DHT22;3643;52.460;13.322;2023-01-30T00:23:39;1.70;99.90
7204;DHT22;3643;52.460;13.322;2023-01-30T00:26:07;1.70;99.90
7204;DHT22;3643;52.460;13.322;2023-01-30T00:28:36;1.70;99.90
7204;DHT22;3643;52.460;13.322;2023-01-30T00:31:06;1.70;99.90
7204;DHT22;3643;52.460;13.322;2023-01-30T00:33:36;1.70;99.90
7204;DHT22;3643;52.460;13.322;2023-01-30T00:36:06;1.70;99.90
7204;DHT22;3643;52.460;13.322;2023-01-30T00:38:35;1.70;99.90
7204;DHT22;3643;52.460;13.322;2023-01-30T00:41:04;1.70;99.90
7204;DHT22;3643;52.460;13.322;2023-01-30T00:43:32;1.70;99.90
7204;DHT22;3643;52.460;13.322;2023-01-30T00:46:23;1.60;99.90
7204;DHT22;3643;52.460;13.322;2023-01-30T00:49:10;1.70;99.90
7204;DHT22;3643;52.460;13.322;2023-01-30T00:51:39;1.70;99.90
7204;DHT22;3643;52.460;13.322;2023-01-30T00:54:09;1.60;99.90
7204;DHT22;3643;52.460;13.322;2023-01-30T00:56:37;1.70;99.90
7204;DHT22;3643;52.460;13.322;2023-01-30T00:59:05;1.70;99.90
7204;DHT22;3643;52.460;13.322;2023-01-30T01:01:34;1.70;99.90
7204;DHT22;3643;52.460;13.322;2023-01-30T01:04:04;1.60;99.90
7204;DHT22;3643;52.460;13.322;2023-01-30T01:06:34;1.60;99.90
7204;DHT22;3643;52.460;13.322;2023-01-30T01:09:03;1.60;99.90
7204;DHT22;3643;52.460;13.322;2023-01-30T01:11:33;1.60;99.90
7204;DHT22;3643;52.460;13.322;2023-01-30T01:14:03;1.60;99.90
7204;DHT22;3643;52.460;13.322;2023-01-30T01:16:33;1.60;99.90
7204;DHT22;3643;52.460;13.322;2023-01-30T01:19:02;1.60;99.90
7204;DHT22;3643;52.460;13.322;2023-01-30T01:21:31;1.60;99.90
7204;DHT22;3643;52.460;13.322;2023-01-30T01:24:00;1.60;99.90
7204;DHT22;3643;52.460;13.322;2023-01-30T01:26:28;1.50;99.90
7204;DHT22;3643;52.460;13.322;2023-01-30T01:28:58;1.50;99.90
7204;DHT22;3643;52.460;13.322;2023-01-30T01:31:26;1.50;99.90
7204;DHT22;3643;52.460;13.322;2023-01-30T01:33:56;1.50;99.90
7204;DHT22;3643;52.460;13.322;2023-01-30T01:36:24;1.50;99.90
7204;DHT22;3643;52.460;13.322;2023-01-30T01:39:12;1.50;99.90
7204;DHT22;3643;52.460;13.322;2023-01-30T01:41:41;1.50;99.90
7204;DHT22;3643;52.460;13.322;2023-01-30T01:44:11;1.50;99.90
7204;DHT22;3643;52.460;13.322;2023-01-30T01:46:43;1.50;99.90
7204;DHT22;3643;52.460;13.322;2023-01-30T01:49:15;1.50;99.90
7204;DHT22;3643;52.460;13.322;2023-01-30T01:51:49;1.50;99.90
7204;DHT22;3643;52.460;13.322;2023-01-30T01:54:24;1.50;99.90
7204;DHT22;3643;52.460;13.322;2023-01-30T01:56:55;1.60;99.90
7204;DHT22;3643;52.460;13.322;2023-01-30T01:59:29;1.60;99.90
7204;DHT22;3643;52.460;13.322;2023-01-30T02:02:02;1.60;99.90
7204;DHT22;3643;52.460;13.322;2023-01-30T02:04:34;1.60;99.90
7204;DHT22;3643;52.460;13.322;2023-01-30T02:07:22;1.60;99.90
7204;DHT22;3643;52.460;13.322;2023-01-30T02:09:51;1.60;99.90
7204;DHT22;3643;52.460;13.322;2023-01-30T02:12:19;1.60;99.90
7204;DHT22;3643;52.460;13.322;2023-01-30T02:14:49;1.60;99.90
7204;DHT22;3643;52.460;13.322;2023-01-30T02:17:19;1.50;99.90
7204;DHT22;3643;52.460;13.322;2023-01-30T02:19:52;1.50;99.90
7204;DHT22;3643;52.460;13.322;2023-01-30T02:22:43;1.40;99.90
7204;DHT22;3643;52.460;13.322;2023-01-30T02:28:38;1.30;99.90
7204;DHT22;3643;52.460;13.322;2023-01-30T02:31:23;1.30;99.90
7204;DHT22;3643;52.460;13.322;2023-01-30T02:34:02;1.30;99.90
7204;DHT22;3643;52.460;13.322;2023-01-30T02:36:41;1.40;99.90
7204;DHT22;3643;52.460;13.322;2023-01-30T02:39:22;1.40;99.90
7204;DHT22;3643;52.460;13.322;2023-01-30T02:42:00;1.40;99.90
7204;DHT22;3643;52.460;13.322;2023-01-30T02:44:40;1.50;99.90
7204;DHT22;3643;52.460;13.322;2023-01-30T02:47:16;1.50;99.90
7204;DHT22;3643;52.460;13.322;2023-01-30T02:49:51;1.40;99.90
7204;DHT22;3643;52.460;13.322;2023-01-30T02:52:21;1.40;99.90
7204;DHT22;3643;52.460;13.322;2023-01-30T02:54:50;1.40;99.90
7204;DHT22;3643;52.460;13.322;2023-01-30T02:57:20;1.30;99.90
7204;DHT22;3643;52.460;13.322;2023-01-30T02:59:53;1.30;99.90
7204;DHT22;3643;52.460;13.322;2023-01-30T03:05:58;1.20;99.90
7204;DHT22;3643;52.460;13.322;2023-01-30T03:08:33;1.20;99.90
7204;DHT22;3643;52.460;13.322;2023-01-30T03:11:06;1.20;99.90
7204;DHT22;3643;52.460;13.322;2023-01-30T03:13:46;1.30;99.90
7204;DHT22;3643;52.460;13.322;2023-01-30T03:16:19;1.30;99.90
7204;DHT22;3643;52.460;13.322;2023-01-30T03:18:50;1.30;99.90
7204;DHT22;3643;52.460;13.322;2023-01-30T03:21:19;1.30;99.90
7204;DHT22;3643;52.460;13.322;2023-01-30T03:23:47;1.40;99.90
7204;DHT22;3643;52.460;13.322;2023-01-30T03:26:19;1.40;99.90
7204;DHT22;3643;52.460;13.322;2023-01-30T03:28:49;1.40;99.90
7204;DHT22;3643;52.460;13.322;2023-01-30T03:31:18;1.40;99.90
7204;DHT22;3643;52.460;13.322;2023-01-30T03:33:46;1.50;99.90
7204;DHT22;3643;52.460;13.322;2023-01-30T03:36:16;1.50;99.90
7204;DHT22;3643;52.460;13.322;2023-01-30T03:38:45;1.50;99.90
7204;DHT22;3643;52.460;13.322;2023-01-30T03:41:13;1.50;99.90
7204;DHT22;3643;52.460;13.322;2023-01-30T03:43:42;1.50;99.90
7204;DHT22;3643;52.460;13.322;2023-01-30T03:46:11;1.60;99.90
7204;DHT22;3643;52.460;13.322;2023-01-30T03:48:39;1.60;99.90
7204;DHT22;3643;52.460;13.322;2023-01-30T03:51:08;1.60;99.90
7204;DHT22;3643;52.460;13.322;2023-01-30T03:53:38;1.60;99.90
7204;DHT22;3643;52.460;13.322;2023-01-30T03:56:06;1.70;99.90
7204;DHT22;3643;52.460;13.322;2023-01-30T03:58:34;1.70;99.90
7204;DHT22;3643;52.460;13.322;2023-01-30T04:01:03;1.70;99.90
7204;DHT22;3643;52.460;13.322;2023-01-30T04:03:32;1.60;99.90
7204;DHT22;3643;52.460;13.322;2023-01-30T04:06:01;1.60;99.90
7204;DHT22;3643;52.460;13.322;2023-01-30T04:08:29;1.60;99.90
7204;DHT22;3643;52.460;13.322;2023-01-30T04:10:59;1.60;99.90
7204;DHT22;3643;52.460;13.322;2023-01-30T04:13:27;1.60;99.90
7204;DHT22;3643;52.460;13.322;2023-01-30T04:16:14;1.70;99.90
7204;DHT22;3643;52.460;13.322;2023-01-30T04:18:43;1.70;99.90
7204;DHT22;3643;52.460;13.322;2023-01-30T04:21:12;1.70;99.90
7204;DHT22;3643;52.460;13.322;2023-01-30T04:23:41;1.70;99.90
7204;DHT22;3643;52.460;13.322;2023-01-30T04:26:11;1.80;99.90
7204;DHT22;3643;52.460;13.322;2023-01-30T04:28:41;1.80;99.90
7204;DHT22;3643;52.460;13.322;2023-01-30T04:31:11;1.90;99.90
7204;DHT22;3643;52.460;13.322;2023-01-30T04:33:40;1.90;99.90
7204;DHT22;3643;52.460;13.322;2023-01-30T04:36:09;2.00;99.90
7204;DHT22;3643;52.460;13.322;2023-01-30T04:38:38;2.00;99.90
7204;DHT22;3643;52.460;13.322;2023-01-30T04:41:07;2.10;99.90
7204;DHT22;3643;52.460;13.322;2023-01-30T04:43:37;2.10;99.90
7204;DHT22;3643;52.460;13.322;2023-01-30T04:46:06;2.20;99.90
7204;DHT22;3643;52.460;13.322;2023-01-30T04:48:34;2.20;99.90
7204;DHT22;3643;52.460;13.322;2023-01-30T04:51:03;2.20;99.90
7204;DHT22;3643;52.460;13.322;2023-01-30T04:53:32;2.30;99.90
7204;DHT22;3643;52.460;13.322;2023-01-30T04:56:01;2.30;99.90
7204;DHT22;3643;52.460;13.322;2023-01-30T04:58:29;2.40;99.90
7204;DHT22;3643;52.460;13.322;2023-01-30T05:01:13;2.40;99.90
7204;DHT22;3643;52.460;13.322;2023-01-30T05:03:42;2.40;99.90
7204;DHT22;3643;52.460;13.322;2023-01-30T05:06:10;2.40;99.90
7204;DHT22;3643;52.460;13.322;2023-01-30T05:08:39;2.30;99.90
7204;DHT22;3643;52.460;13.322;2023-01-30T05:11:07;2.30;99.90
7204;DHT22;3643;52.460;13.322;2023-01-30T05:13:35;2.20;99.90
7204;DHT22;3643;52.460;13.322;2023-01-30T05:16:04;2.10;99.90
7204;DHT22;3643;52.460;13.322;2023-01-30T05:18:33;2.10;99.90
7204;DHT22;3643;52.460;13.322;2023-01-30T05:21:06;2.00;99.90
7204;DHT22;3643;52.460;13.322;2023-01-30T05:23:34;2.00;99.90
7204;DHT22;3643;52.460;13.322;2023-01-30T05:26:03;1.90;99.90
7204;DHT22;3643;52.460;13.322;2023-01-30T05:28:32;1.90;99.90
7204;DHT22;3643;52.460;13.322;2023-01-30T05:31:00;1.80;99.90
7204;DHT22;3643;52.460;13.322;2023-01-30T05:33:29;1.70;99.90
7204;DHT22;3643;52.460;13.322;2023-01-30T05:35:58;1.70;99.90
7204;DHT22;3643;52.460;13.322;2023-01-30T05:38:27;1.60;99.90
7204;DHT22;3643;52.460;13.322;2023-01-30T05:40:58;1.60;99.90
7204;DHT22;3643;52.460;13.322;2023-01-30T05:43:27;1.60;99.90
7204;DHT22;3643;52.460;13.322;2023-01-30T05:45:56;1.60;99.90
7204;DHT22;3643;52.460;13.322;2023-01-30T05:48:25;1.60;99.90
7204;DHT22;3643;52.460;13.322;2023-01-30T05:50:55;1.60;99.90
7204;DHT22;3643;52.460;13.322;2023-01-30T05:53:27;1.60;99.90
7204;DHT22;3643;52.460;13.322;2023-01-30T05:55:56;1.60;99.90
7204;DHT22;3643;52.460;13.322;2023-01-30T05:58:24;1.60;99.90
7204;DHT22;3643;52.460;13.322;2023-01-30T06:00:53;1.80;99.90
7204;DHT22;3643;52.460;13.322;2023-01-30T06:03:21;1.60;99.90
7204;DHT22;3643;52.460;13.322;2023-01-30T06:05:49;1.70;99.90
7204;DHT22;3643;52.460;13.322;2023-01-30T06:08:18;1.70;99.90
7204;DHT22;3643;52.460;13.322;2023-01-30T06:10:47;1.70;99.90
7204;DHT22;3643;52.460;13.322;2023-01-30T06:13:15;1.70;99.90
7204;DHT22;3643;52.460;13.322;2023-01-30T06:15:43;1.70;99.90
7204;DHT22;3643;52.460;13.322;2023-01-30T06:18:12;1.70;99.90
7204;DHT22;3643;52.460;13.322;2023-01-30T06:20:40;1.80;99.90
7204;DHT22;3643;52.460;13.322;2023-01-30T06:23:08;1.80;99.90
7204;DHT22;3643;52.460;13.322;2023-01-30T06:25:36;1.80;99.90
7204;DHT22;3643;52.460;13.322;2023-01-30T06:28:05;1.90;99.90
7204;DHT22;3643;52.460;13.322;2023-01-30T06:30:33;1.90;99.90
7204;DHT22;3643;52.460;13.322;2023-01-30T06:33:01;1.90;99.90
7204;DHT22;3643;52.460;13.322;2023-01-30T06:35:29;2.00;99.90
7204;DHT22;3643;52.460;13.322;2023-01-30T06:37:57;2.30;99.90
7204;DHT22;3643;52.460;13.322;2023-01-30T06:40:25;2.00;99.90
7204;DHT22;3643;52.460;13.322;2023-01-30T06:42:53;2.10;99.90
7204;DHT22;3643;52.460;13.322;2023-01-30T06:45:23;2.10;99.90
7204;DHT22;3643;52.460;13.322;2023-01-30T06:47:52;2.10;99.90
7204;DHT22;3643;52.460;13.322;2023-01-30T06:50:22;2.10;99.90
7204;DHT22;3643;52.460;13.322;2023-01-30T06:52:51;2.20;99.90
7204;DHT22;3643;52.460;13.322;2023-01-30T06:55:21;2.20;99.90
7204;DHT22;3643;52.460;13.322;2023-01-30T06:57:59;2.00;99.90
7204;DHT22;3643;52.460;13.322;2023-01-30T07:00:29;2.60;99.90
7204;DHT22;3643;52.460;13.322;2023-01-30T07:02:57;2.30;99.90
7204;DHT22;3643;52.460;13.322;2023-01-30T07:05:26;2.30;99.90
7204;DHT22;3643;52.460;13.322;2023-01-30T07:07:55;2.70;99.90
7204;DHT22;3643;52.460;13.322;2023-01-30T07:10:23;2.40;99.90
7204;DHT22;3643;52.460;13.322;2023-01-30T07:12:52;2.50;99.90
7204;DHT22;3643;52.460;13.322;2023-01-30T07:15:20;2.60;99.90
7204;DHT22;3643;52.460;13.322;2023-01-30T07:17:49;2.60;99.90
7204;DHT22;3643;52.460;13.322;2023-01-30T07:20:17;2.70;99.90
7204;DHT22;3643;52.460;13.322;2023-01-30T07:22:49;2.70;99.90
7204;DHT22;3643;52.460;13.322;2023-01-30T07:25:17;2.70;99.90
7204;DHT22;3643;52.460;13.322;2023-01-30T07:27:49;2.70;99.90
7204;DHT22;3643;52.460;13.322;2023-01-30T07:30:18;2.80;99.90
7204;DHT22;3643;52.460;13.322;2023-01-30T07:32:50;2.80;99.90
7204;DHT22;3643;52.460;13.322;2023-01-30T07:35:20;2.90;99.90
7204;DHT22;3643;52.460;13.322;2023-01-30T07:37:50;3.10;99.90
7204;DHT22;3643;52.460;13.322;2023-01-30T07:40:18;3.00;99.90
7204;DHT22;3643;52.460;13.322;2023-01-30T07:42:55;3.10;99.90
7204;DHT22;3643;52.460;13.322;2023-01-30T07:45:23;3.10;99.90
7204;DHT22;3643;52.460;13.322;2023-01-30T07:47:53;3.30;99.90
7204;DHT22;3643;52.460;13.322;2023-01-30T07:50:21;3.20;99.90
7204;DHT22;3643;52.460;13.322;2023-01-30T07:52:50;3.30;99.90
7204;DHT22;3643;52.460;13.322;2023-01-30T07:55:18;3.30;99.90
7204;DHT22;3643;52.460;13.322;2023-01-30T07:57:47;3.40;99.90
7204;DHT22;3643;52.460;13.322;2023-01-30T08:00:15;3.50;99.90
7204;DHT22;3643;52.460;13.322;2023-01-30T08:02:44;3.50;99.90
7204;DHT22;3643;52.460;13.322;2023-01-30T08:05:14;3.50;99.90
7204;DHT22;3643;52.460;13.322;2023-01-30T08:07:42;3.60;99.90
7204;DHT22;3643;52.460;13.322;2023-01-30T08:10:11;3.60;99.90
7204;DHT22;3643;52.460;13.322;2023-01-30T08:12:39;3.60;99.90
7204;DHT22;3643;52.460;13.322;2023-01-30T08:15:08;3.70;99.90
7204;DHT22;3643;52.460;13.322;2023-01-30T08:17:36;3.70;99.90
7204;DHT22;3643;52.460;13.322;2023-01-30T08:20:05;3.70;99.90
7204;DHT22;3643;52.460;13.322;2023-01-30T08:22:35;3.70;99.90
7204;DHT22;3643;52.460;13.322;2023-01-30T08:25:04;3.70;99.90
7204;DHT22;3643;52.460;13.322;2023-01-30T08:27:32;3.70;99.90
7204;DHT22;3643;52.460;13.322;2023-01-30T08:30:00;3.80;99.90
7204;DHT22;3643;52.460;13.322;2023-01-30T08:32:29;3.70;99.90
7204;DHT22;3643;52.460;13.322;2023-01-30T08:34:57;3.80;99.90
7204;DHT22;3643;52.460;13.322;2023-01-30T08:37:25;3.90;99.90
7204;DHT22;3643;52.460;13.322;2023-01-30T08:39:54;3.90;99.90
7204;DHT22;3643;52.460;13.322;2023-01-30T08:42:23;3.90;99.90
7204;DHT22;3643;52.460;13.322;2023-01-30T08:44:51;4.10;99.90
7204;DHT22;3643;52.460;13.322;2023-01-30T08:47:19;3.90;99.90
7204;DHT22;3643;52.460;13.322;2023-01-30T08:49:47;3.90;99.90
7204;DHT22;3643;52.460;13.322;2023-01-30T08:52:17;3.90;99.90
7204;DHT22;3643;52.460;13.322;2023-01-30T08:54:45;3.90;99.90
7204;DHT22;3643;52.460;13.322;2023-01-30T08:57:15;3.90;99.90
7204;DHT22;3643;52.460;13.322;2023-01-30T08:59:43;3.90;99.90
7204;DHT22;3643;52.460;13.322;2023-01-30T09:02:12;4.00;99.90
7204;DHT22;3643;52.460;13.322;2023-01-30T09:04:40;4.00;99.90
7204;DHT22;3643;52.460;13.322;2023-01-30T09:07:08;4.00;99.90
7204;DHT22;3643;52.460;13.322;2023-01-30T09:09:36;4.10;99.90
7204;DHT22;3643;52.460;13.322;2023-01-30T09:12:05;4.20;99.90
7204;DHT22;3643;52.460;13.322;2023-01-30T09:14:34;4.20;99.90
7204;DHT22;3643;52.460;13.322;2023-01-30T09:17:03;4.20;99.90
7204;DHT22;3643;52.460;13.322;2023-01-30T09:19:31;4.20;99.90
7204;DHT22;3643;52.460;13.322;2023-01-30T09:22:01;4.20;99.90
7204;DHT22;3643;52.460;13.322;2023-01-30T09:24:30;4.20;99.90
7204;DHT22;3643;52.460;13.322;2023-01-30T09:26:58;4.30;99.90
7204;DHT22;3643;52.460;13.322;2023-01-30T09:29:27;4.30;99.90
7204;DHT22;3643;52.460;13.322;2023-01-30T09:31:56;4.40;99.90
7204;DHT22;3643;52.460;13.322;2023-01-30T09:34:26;4.50;99.90
7204;DHT22;3643;52.460;13.322;2023-01-30T09:36:54;4.60;99.90
7204;DHT22;3643;52.460;13.322;2023-01-30T09:39:23;4.60;99.90
7204;DHT22;3643;52.460;13.322;2023-01-30T09:41:59;4.60;99.90
7204;DHT22;3643;52.460;13.322;2023-01-30T09:45:00;4.70;99.90
7204;DHT22;3643;52.460;13.322;2023-01-30T09:47:41;4.70;99.90
7204;DHT22;3643;52.460;13.322;2023-01-30T09:50:25;4.80;99.90
7204;DHT22;3643;52.460;13.322;2023-01-30T09:53:03;4.90;99.90
7204;DHT22;3643;52.460;13.322;2023-01-30T09:55:36;5.00;99.90
7204;DHT22;3643;52.460;13.322;2023-01-30T09:58:07;5.00;99.90
7204;DHT22;3643;52.460;13.322;2023-01-30T10:00:40;5.20;99.90
7204;DHT22;3643;52.460;13.322;2023-01-30T10:03:12;5.10;99.90
7204;DHT22;3643;52.460;13.322;2023-01-30T10:05:44;5.20;99.90
7204;DHT22;3643;52.460;13.322;2023-01-30T10:08:27;5.10;99.90
7204;DHT22;3643;52.460;13.322;2023-01-30T10:11:06;5.00;99.90
7204;DHT22;3643;52.460;13.322;2023-01-30T10:14:01;5.00;99.90
7204;DHT22;3643;52.460;13.322;2023-01-30T10:16:38;4.80;99.90
7204;DHT22;3643;52.460;13.322;2023-01-30T10:22:18;4.90;99.90
7204;DHT22;3643;52.460;13.322;2023-01-30T10:24:58;5.00;99.90
7204;DHT22;3643;52.460;13.322;2023-01-30T10:27:30;5.10;99.90
7204;DHT22;3643;52.460;13.322;2023-01-30T10:30:01;5.10;99.90
7204;DHT22;3643;52.460;13.322;2023-01-30T10:32:32;5.10;99.90
7204;DHT22;3643;52.460;13.322;2023-01-30T10:35:18;5.10;99.90
7204;DHT22;3643;52.460;13.322;2023-01-30T10:37:52;5.00;99.90
7204;DHT22;3643;52.460;13.322;2023-01-30T10:40:28;5.20;99.90
7204;DHT22;3643;52.460;13.322;2023-01-30T10:43:02;5.90;99.90
7204;DHT22;3643;52.460;13.322;2023-01-30T10:45:37;5.20;99.90
7204;DHT22;3643;52.460;13.322;2023-01-30T10:48:22;5.10;99.90
7204;DHT22;3643;52.460;13.322;2023-01-30T10:51:22;5.00;99.90
7204;DHT22;3643;52.460;13.322;2023-01-30T10:53:56;4.90;99.90
7204;DHT22;3643;52.460;13.322;2023-01-30T10:56:33;5.00;99.90
7204;DHT22;3643;52.460;13.322;2023-01-30T10:59:10;4.90;99.90
7204;DHT22;3643;52.460;13.322;2023-01-30T11:01:43;5.10;99.90
7204;DHT22;3643;52.460;13.322;2023-01-30T11:04:20;4.80;99.90
7204;DHT22;3643;52.460;13.322;2023-01-30T11:06:51;4.80;99.90
7204;DHT22;3643;52.460;13.322;2023-01-30T11:09:20;5.00;99.90
7204;DHT22;3643;52.460;13.322;2023-01-30T11:11:51;5.00;99.90
7204;DHT22;3643;52.460;13.322;2023-01-30T11:14:20;5.00;99.90
7204;DHT22;3643;52.460;13.322;2023-01-30T11:16:50;5.10;99.90
7204;DHT22;3643;52.460;13.322;2023-01-30T11:19:23;5.00;99.90
7204;DHT22;3643;52.460;13.322;2023-01-30T11:21:55;5.10;99.90
7204;DHT22;3643;52.460;13.322;2023-01-30T11:24:29;5.10;99.90
7204;DHT22;3643;52.460;13.322;2023-01-30T11:27:08;5.10;99.90
7204;DHT22;3643;52.460;13.322;2023-01-30T11:29:38;4.90;99.90
7204;DHT22;3643;52.460;13.322;2023-01-30T11:32:11;5.00;99.90
7204;DHT22;3643;52.460;13.322;2023-01-30T11:34:41;5.10;99.90
7204;DHT22;3643;52.460;13.322;2023-01-30T11:37:24;5.10;99.90
7204;DHT22;3643;52.460;13.322;2023-01-30T11:39:55;5.20;99.90
7204;DHT22;3643;52.460;13.322;2023-01-30T11:42:27;5.40;99.90
7204;DHT22;3643;52.460;13.322;2023-01-30T11:44:58;5.40;99.90
7204;DHT22;3643;52.460;13.322;2023-01-30T11:47:50;5.40;99.90
7204;DHT22;3643;52.460;13.322;2023-01-30T11:50:29;5.40;99.90
7204;DHT22;3643;52.460;13.322;2023-01-30T11:53:19;5.50;99.90
7204;DHT22;3643;52.460;13.322;2023-01-30T11:55:50;5.70;99.90
7204;DHT22;3643;52.460;13.322;2023-01-30T11:58:32;5.80;99.90
7204;DHT22;3643;52.460;13.322;2023-01-30T12:01:01;5.60;99.90
7204;DHT22;3643;52.460;13.322;2023-01-30T12:03:31;5.60;99.90
7204;DHT22;3643;52.460;13.322;2023-01-30T12:06:00;5.80;99.90
7204;DHT22;3643;52.460;13.322;2023-01-30T12:08:36;6.00;99.90
7204;DHT22;3643;52.460;13.322;2023-01-30T12:11:24;6.10;99.90
7204;DHT22;3643;52.460;13.322;2023-01-30T12:13:56;6.40;99.90
7204;DHT22;3643;52.460;13.322;2023-01-30T12:16:40;6.70;99.90
7204;DHT22;3643;52.460;13.322;2023-01-30T12:19:19;7.10;99.90
7204;DHT22;3643;52.460;13.322;2023-01-30T12:21:54;7.40;99.90
7204;DHT22;3643;52.460;13.322;2023-01-30T12:24:32;7.30;99.90
7204;DHT22;3643;52.460;13.322;2023-01-30T12:27:04;7.20;99.90
7204;DHT22;3643;52.460;13.322;2023-01-30T12:29:39;7.00;99.90
7204;DHT22;3643;52.460;13.322;2023-01-30T12:32:12;6.80;99.90
7204;DHT22;3643;52.460;13.322;2023-01-30T12:34:41;6.80;99.90
7204;DHT22;3643;52.460;13.322;2023-01-30T12:37:31;6.80;99.90
7204;DHT22;3643;52.460;13.322;2023-01-30T12:40:12;6.90;99.90
7204;DHT22;3643;52.460;13.322;2023-01-30T12:45:48;6.60;99.90
7204;DHT22;3643;52.460;13.322;2023-01-30T12:48:46;6.50;99.90
7204;DHT22;3643;52.460;13.322;2023-01-30T12:51:49;6.30;99.90
7204;DHT22;3643;52.460;13.322;2023-01-30T12:54:35;6.30;99.90
7204;DHT22;3643;52.460;13.322;2023-01-30T12:57:14;6.30;99.90
7204;DHT22;3643;52.460;13.322;2023-01-30T12:59:52;6.30;99.90
7204;DHT22;3643;52.460;13.322;2023-01-30T13:02:41;6.30;99.90
7204;DHT22;3643;52.460;13.322;2023-01-30T13:05:22;6.50;99.90
7204;DHT22;3643;52.460;13.322;2023-01-30T13:08:16;6.50;99.90
7204;DHT22;3643;52.460;13.322;2023-01-30T13:10:53;6.50;99.90
7204;DHT22;3643;52.460;13.322;2023-01-30T13:13:35;6.60;99.90
7204;DHT22;3643;52.460;13.322;2023-01-30T13:16:14;6.60;99.90
7204;DHT22;3643;52.460;13.322;2023-01-30T13:18:49;6.70;99.90
7204;DHT22;3643;52.460;13.322;2023-01-30T13:21:24;6.70;99.90
7204;DHT22;3643;52.460;13.322;2023-01-30T13:24:09;6.60;99.90
7204;DHT22;3643;52.460;13.322;2023-01-30T13:26:41;6.60;99.90
7204;DHT22;3643;52.460;13.322;2023-01-30T13:29:14;6.60;99.90
7204;DHT22;3643;52.460;13.322;2023-01-30T13:31:55;6.50;99.90
7204;DHT22;3643;52.460;13.322;2023-01-30T13:34:29;6.60;99.90
7204;DHT22;3643;52.460;13.322;2023-01-30T13:37:01;6.50;99.90
7204;DHT22;3643;52.460;13.322;2023-01-30T13:39:37;6.50;99.90
7204;DHT22;3643;52.460;13.322;2023-01-30T13:42:22;6.50;99.90
7204;DHT22;3643;52.460;13.322;2023-01-30T13:44:53;6.50;99.90
7204;DHT22;3643;52.460;13.322;2023-01-30T13:47:35;6.40;99.90
7204;DHT22;3643;52.460;13.322;2023-01-30T13:50:19;6.30;99.90
7204;DHT22;3643;52.460;13.322;2023-01-30T13:52:55;6.00;99.90
7204;DHT22;3643;52.460;13.322;2023-01-30T13:55:32;5.80;99.90
7204;DHT22;3643;52.460;13.322;2023-01-30T13:58:10;5.60;99.90
7204;DHT22;3643;52.460;13.322;2023-01-30T14:00:52;5.40;99.90
7204;DHT22;3643;52.460;13.322;2023-01-30T14:03:27;5.30;99.90
7204;DHT22;3643;52.460;13.322;2023-01-30T14:06:31;5.10;99.90
7204;DHT22;3643;52.460;13.322;2023-01-30T14:09:03;5.00;99.90
7204;DHT22;3643;52.460;13.322;2023-01-30T14:11:36;5.00;99.90
7204;DHT22;3643;52.460;13.322;2023-01-30T14:14:23;4.90;99.90
7204;DHT22;3643;52.460;13.322;2023-01-30T14:16:55;4.60;99.90
7204;DHT22;3643;52.460;13.322;2023-01-30T14:19:41;4.50;99.90
7204;DHT22;3643;52.460;13.322;2023-01-30T14:22:19;4.30;99.90
7204;DHT22;3643;52.460;13.322;2023-01-30T14:31:50;4.00;99.90
7204;DHT22;3643;52.460;13.322;2023-01-30T14:34:48;3.80;99.90
7204;DHT22;3643;52.460;13.322;2023-01-30T14:37:44;3.50;99.90
7204;DHT22;3643;52.460;13.322;2023-01-30T14:40:38;3.40;99.90
7204;DHT22;3643;52.460;13.322;2023-01-30T14:43:46;3.30;99.90
7204;DHT22;3643;52.460;13.322;2023-01-30T14:46:39;3.30;99.90
7204;DHT22;3643;52.460;13.322;2023-01-30T14:49:27;3.20;99.90
7204;DHT22;3643;52.460;13.322;2023-01-30T14:51:58;3.20;99.90
7204;DHT22;3643;52.460;13.322;2023-01-30T14:54:33;3.30;99.90
7204;DHT22;3643;52.460;13.322;2023-01-30T14:57:23;3.30;99.90
7204;DHT22;3643;52.460;13.322;2023-01-30T14:59:55;3.20;99.90
7204;DHT22;3643;52.460;13.322;2023-01-30T15:02:49;3.20;99.90
7204;DHT22;3643;52.460;13.322;2023-01-30T15:05:23;3.30;99.90
7204;DHT22;3643;52.460;13.322;2023-01-30T15:07:57;3.30;99.90
7204;DHT22;3643;52.460;13.322;2023-01-30T15:10:49;3.30;99.90
7204;DHT22;3643;52.460;13.322;2023-01-30T15:13:48;3.30;99.90
7204;DHT22;3643;52.460;13.322;2023-01-30T15:16:37;3.40;99.90
7204;DHT22;3643;52.460;13.322;2023-01-30T15:19:17;3.40;99.90
7204;DHT22;3643;52.460;13.322;2023-01-30T15:21:57;3.40;99.90
7204;DHT22;3643;52.460;13.322;2023-01-30T15:24:47;3.40;99.90
7204;DHT22;3643;52.460;13.322;2023-01-30T15:27:25;3.30;99.90
7204;DHT22;3643;52.460;13.322;2023-01-30T15:30:04;3.40;99.90
7204;DHT22;3643;52.460;13.322;2023-01-30T15:32:43;3.40;99.90
7204;DHT22;3643;52.460;13.322;2023-01-30T15:35:21;3.40;99.90
7204;DHT22;3643;52.460;13.322;2023-01-30T15:37:51;3.50;99.90
7204;DHT22;3643;52.460;13.322;2023-01-30T15:40:26;3.50;99.90
7204;DHT22;3643;52.460;13.322;2023-01-30T15:43:09;3.50;99.90
7204;DHT22;3643;52.460;13.322;2023-01-30T15:45:46;3.60;99.90
7204;DHT22;3643;52.460;13.322;2023-01-30T15:48:35;3.50;99.90
7204;DHT22;3643;52.460;13.322;2023-01-30T15:51:07;3.60;99.90
7204;DHT22;3643;52.460;13.322;2023-01-30T15:53:41;3.60;99.90
7204;DHT22;3643;52.460;13.322;2023-01-30T15:56:16;3.70;99.90
7204;DHT22;3643;52.460;13.322;2023-01-30T15:58:46;3.70;99.90
7204;DHT22;3643;52.460;13.322;2023-01-30T16:01:18;3.70;99.90
7204;DHT22;3643;52.460;13.322;2023-01-30T16:03:47;3.70;99.90
7204;DHT22;3643;52.460;13.322;2023-01-30T16:06:28;3.70;99.90
7204;DHT22;3643;52.460;13.322;2023-01-30T16:08:58;3.70;99.90
7204;DHT22;3643;52.460;13.322;2023-01-30T16:11:37;3.70;99.90
7204;DHT22;3643;52.460;13.322;2023-01-30T16:14:09;3.80;99.90
7204;DHT22;3643;52.460;13.322;2023-01-30T16:16:40;3.60;99.90
7204;DHT22;3643;52.460;13.322;2023-01-30T16:19:18;3.60;99.90
7204;DHT22;3643;52.460;13.322;2023-01-30T16:21:48;3.70;99.90
7204;DHT22;3643;52.460;13.322;2023-01-30T16:24:19;3.70;99.90
7204;DHT22;3643;52.460;13.322;2023-01-30T16:26:54;3.70;99.90
7204;DHT22;3643;52.460;13.322;2023-01-30T16:29:27;3.80;99.90
7204;DHT22;3643;52.460;13.322;2023-01-30T16:31:57;3.80;99.90
7204;DHT22;3643;52.460;13.322;2023-01-30T16:34:31;3.70;99.90
7204;DHT22;3643;52.460;13.322;2023-01-30T16:37:04;3.70;99.90
7204;DHT22;3643;52.460;13.322;2023-01-30T16:39:34;3.70;99.90
7204;DHT22;3643;52.460;13.322;2023-01-30T16:42:25;3.80;99.90
7204;DHT22;3643;52.460;13.322;2023-01-30T16:45:03;3.70;99.90
7204;DHT22;3643;52.460;13.322;2023-01-30T16:47:37;3.70;99.90
7204;DHT22;3643;52.460;13.322;2023-01-30T16:50:16;3.70;99.90
7204;DHT22;3643;52.460;13.322;2023-01-30T16:52:49;3.70;99.90
7204;DHT22;3643;52.460;13.322;2023-01-30T16:55:20;3.70;99.90
7204;DHT22;3643;52.460;13.322;2023-01-30T16:57:52;3.70;99.90
7204;DHT22;3643;52.460;13.322;2023-01-30T17:00:23;3.80;99.90
7204;DHT22;3643;52.460;13.322;2023-01-30T17:02:54;3.80;99.90